sensor_id;sensor_type;location;lat;lon;timestamp;pressure;altitude;pressure_sealevel;temperature;humidity
10466;BME280;5280;42.600;23.556;2023-03-04T00:01:31;93406.25;;;5.98;100.00
10466;BME280;5280;42.600;23.556;2023-03-04T00:03:59;93408.22;;;5.94;100.00
10466;BME280;5280;42.600;23.556;2023-03-04T00:06:26;93414.13;;;5.98;100.00
10466;BME280;5280;42.600;23.556;2023-03-04T00:08:54;93402.91;;;5.96;100.00
10466;BME280;5280;42.600;23.556;2023-03-04T00:11:21;93361.66;;;5.70;100.00
10466;BME280;5280;42.600;23.556;2023-03-04T00:13:48;93394.94;;;5.97;100.00
10466;BME280;5280;42.600;23.556;2023-03-04T00:16:15;93388.38;;;5.90;100.00
10466;BME280;5280;42.600;23.556;2023-03-04T00:18:42;93396.59;;;5.98;100.00
10466;BME280;5280;42.600;23.556;2023-03-04T00:21:10;93377.69;;;5.93;100.00
10466;BME280;5280;42.600;23.556;2023-03-04T00:23:37;93396.59;;;5.98;100.00
10466;BME280;5280;42.600;23.556;2023-03-04T00:26:05;93392.88;;;6.02;100.00
10466;BME280;5280;42.600;23.556;2023-03-04T00:28:34;93392.22;;;5.99;100.00
10466;BME280;5280;42.600;23.556;2023-03-04T00:31:00;93392.47;;;6.09;100.00
10466;BME280;5280;42.600;23.556;2023-03-04T00:33:27;93395.88;;;6.11;100.00
10466;BME280;5280;42.600;23.556;2023-03-04T00:35:54;93395.66;;;6.14;100.00
10466;BME280;5280;42.600;23.556;2023-03-04T00:38:22;93396.63;;;6.13;100.00
10466;BME280;5280;42.600;23.556;2023-03-04T00:40:49;93370.94;;;6.03;100.00
10466;BME280;5280;42.600;23.556;2023-03-04T00:43:16;93353.22;;;5.79;100.00
10466;BME280;5280;42.600;23.556;2023-03-04T00:45:43;93393.59;;;6.19;100.00
10466;BME280;5280;42.600;23.556;2023-03-04T00:48:10;93398.00;;;6.18;100.00
10466;BME280;5280;42.600;23.556;2023-03-04T00:50:37;93397.44;;;6.13;100.00
10466;BME280;5280;42.600;23.556;2023-03-04T00:53:04;93342.66;;;5.80;100.00
10466;BME280;5280;42.600;23.556;2023-03-04T00:55:33;93390.41;;;6.14;100.00
10466;BME280;5280;42.600;23.556;2023-03-04T00:57:59;93395.09;;;6.09;100.00
10466;BME280;5280;42.600;23.556;2023-03-04T01:00:27;93373.97;;;5.97;100.00
10466;BME280;5280;42.600;23.556;2023-03-04T01:02:53;93363.72;;;5.93;100.00
10466;BME280;5280;42.600;23.556;2023-03-04T01:05:20;93379.16;;;5.83;100.00
10466;BME280;5280;42.600;23.556;2023-03-04T01:07:48;93372.97;;;5.84;100.00
10466;BME280;5280;42.600;23.556;2023-03-04T01:10:15;93372.44;;;5.93;100.00
10466;BME280;5280;42.600;23.556;2023-03-04T01:12:44;93370.56;;;5.95;100.00
10466;BME280;5280;42.600;23.556;2023-03-04T01:15:12;93370.28;;;6.00;100.00
10466;BME280;5280;42.600;23.556;2023-03-04T01:17:39;93359.63;;;5.89;100.00
10466;BME280;5280;42.600;23.556;2023-03-04T01:20:07;93363.25;;;6.00;100.00
10466;BME280;5280;42.600;23.556;2023-03-04T01:22:34;93349.59;;;5.95;100.00
10466;BME280;5280;42.600;23.556;2023-03-04T01:25:03;93363.81;;;6.05;100.00
10466;BME280;5280;42.600;23.556;2023-03-04T01:27:30;93341.63;;;5.97;100.00
10466;BME280;5280;42.600;23.556;2023-03-04T01:29:58;93356.81;;;6.06;100.00
10466;BME280;5280;42.600;23.556;2023-03-04T01:32:25;93334.88;;;5.93;100.00
10466;BME280;5280;42.600;23.556;2023-03-04T01:34:52;93357.25;;;5.98;100.00
10466;BME280;5280;42.600;23.556;2023-03-04T01:37:19;93349.50;;;5.97;100.00
10466;BME280;5280;42.600;23.556;2023-03-04T01:39:46;93265.31;;;5.45;100.00
10466;BME280;5280;42.600;23.556;2023-03-04T01:42:17;93332.53;;;5.88;100.00
10466;BME280;5280;42.600;23.556;2023-03-04T01:44:46;93337.63;;;5.91;100.00
10466;BME280;5280;42.600;23.556;2023-03-04T01:47:15;93352.78;;;6.00;100.00
10466;BME280;5280;42.600;23.556;2023-03-04T01:49:43;93345.66;;;6.02;100.00
10466;BME280;5280;42.600;23.556;2023-03-04T01:52:11;93291.16;;;5.65;100.00
10466;BME280;5280;42.600;23.556;2023-03-04T01:54:39;93349.03;;;6.04;100.00
10466;BME280;5280;42.600;23.556;2023-03-04T01:57:14;93345.25;;;6.09;100.00
10466;BME280;5280;42.600;23.556;2023-03-04T01:59:43;93344.53;;;6.07;100.00
10466;BME280;5280;42.600;23.556;2023-03-04T02:02:11;93345.25;;;6.09;100.00
10466;BME280;5280;42.600;23.556;2023-03-04T02:04:40;93325.06;;;5.96;100.00
10466;BME280;5280;42.600;23.556;2023-03-04T02:07:08;93346.41;;;6.04;100.00
10466;BME280;5280;42.600;23.556;2023-03-04T02:09:35;93343.97;;;6.01;100.00
10466;BME280;5280;42.600;23.556;2023-03-04T02:12:03;93343.97;;;6.01;100.00
10466;BME280;5280;42.600;23.556;2023-03-04T02:14:30;93351.72;;;6.03;100.00
10466;BME280;5280;42.600;23.556;2023-03-04T02:16:57;93343.03;;;6.02;100.00
10466;BME280;5280;42.600;23.556;2023-03-04T02:19:34;93338.44;;;6.06;100.00
10466;BME280;5280;42.600;23.556;2023-03-04T02:22:07;93334.03;;;6.07;100.00
10466;BME280;5280;42.600;23.556;2023-03-04T02:24:38;93271.69;;;5.55;100.00
10466;BME280;5280;42.600;23.556;2023-03-04T02:27:07;93350.16;;;6.00;100.00
10466;BME280;5280;42.600;23.556;2023-03-04T02:29:35;93321.03;;;5.91;100.00
10466;BME280;5280;42.600;23.556;2023-03-04T02:32:01;93335.63;;;5.95;100.00
10466;BME280;5280;42.600;23.556;2023-03-04T02:34:31;93333.47;;;6.01;100.00
10466;BME280;5280;42.600;23.556;2023-03-04T02:36:58;93326.00;;;5.95;100.00
10466;BME280;5280;42.600;23.556;2023-03-04T02:39:30;93318.97;;;5.96;100.00
10466;BME280;5280;42.600;23.556;2023-03-04T02:41:58;93320.66;;;5.97;100.00
10466;BME280;5280;42.600;23.556;2023-03-04T02:44:28;93316.25;;;5.97;100.00
10466;BME280;5280;42.600;23.556;2023-03-04T02:46:56;93335.91;;;6.04;100.00
10466;BME280;5280;42.600;23.556;2023-03-04T02:49:25;93327.19;;;6.04;100.00
10466;BME280;5280;42.600;23.556;2023-03-04T02:51:56;93316.06;;;6.00;100.00
10466;BME280;5280;42.600;23.556;2023-03-04T02:54:25;93266.25;;;5.58;100.00
10466;BME280;5280;42.600;23.556;2023-03-04T02:56:53;93321.69;;;5.94;100.00
10466;BME280;5280;42.600;23.556;2023-03-04T02:59:22;93326.75;;;5.97;100.00
10466;BME280;5280;42.600;23.556;2023-03-04T03:01:50;93314.19;;;5.88;100.00
10466;BME280;5280;42.600;23.556;2023-03-04T03:04:17;93320.75;;;5.95;100.00
10466;BME280;5280;42.600;23.556;2023-03-04T03:06:46;93312.31;;;5.90;100.00
10466;BME280;5280;42.600;23.556;2023-03-04T03:09:12;93319.53;;;5.87;100.00
10466;BME280;5280;42.600;23.556;2023-03-04T03:11:42;93320.28;;;5.89;100.00
10466;BME280;5280;42.600;23.556;2023-03-04T03:14:09;93323.75;;;5.89;100.00
10466;BME280;5280;42.600;23.556;2023-03-04T03:16:36;93322.91;;;5.89;100.00
10466;BME280;5280;42.600;23.556;2023-03-04T03:19:04;93323.75;;;5.89;100.00
10466;BME280;5280;42.600;23.556;2023-03-04T03:21:32;93325.63;;;5.87;100.00
10466;BME280;5280;42.600;23.556;2023-03-04T03:23:59;93277.00;;;5.53;100.00
10466;BME280;5280;42.600;23.556;2023-03-04T03:26:25;93319.69;;;5.84;100.00
10466;BME280;5280;42.600;23.556;2023-03-04T03:28:52;93293.78;;;5.65;100.00
10466;BME280;5280;42.600;23.556;2023-03-04T03:31:19;93322.22;;;5.85;100.00
10466;BME280;5280;42.600;23.556;2023-03-04T03:33:46;93300.34;;;5.72;100.00
10466;BME280;5280;42.600;23.556;2023-03-04T03:36:14;93331.94;;;5.83;100.00
10466;BME280;5280;42.600;23.556;2023-03-04T03:38:41;93318.75;;;5.85;100.00
10466;BME280;5280;42.600;23.556;2023-03-04T03:41:08;93268.50;;;5.50;100.00
10466;BME280;5280;42.600;23.556;2023-03-04T03:43:35;93312.03;;;5.81;100.00
10466;BME280;5280;42.600;23.556;2023-03-04T03:46:01;93302.00;;;5.73;100.00
10466;BME280;5280;42.600;23.556;2023-03-04T03:48:28;93325.06;;;5.82;100.00
10466;BME280;5280;42.600;23.556;2023-03-04T03:50:55;93312.78;;;5.83;100.00
10466;BME280;5280;42.600;23.556;2023-03-04T03:53:23;93312.59;;;5.72;100.00
10466;BME280;5280;42.600;23.556;2023-03-04T03:55:50;93303.41;;;5.79;100.00
10466;BME280;5280;42.600;23.556;2023-03-04T03:58:17;93315.78;;;5.77;100.00
10466;BME280;5280;42.600;23.556;2023-03-04T04:00:44;93310.63;;;5.75;100.00
10466;BME280;5280;42.600;23.556;2023-03-04T04:03:13;93300.41;;;5.71;100.00
10466;BME280;5280;42.600;23.556;2023-03-04T04:05:41;93296.66;;;5.75;100.00
10466;BME280;5280;42.600;23.556;2023-03-04T04:08:11;93300.72;;;5.66;100.00
10466;BME280;5280;42.600;23.556;2023-03-04T04:10:39;93298.66;;;5.71;100.00
10466;BME280;5280;42.600;23.556;2023-03-04T04:13:06;93291.22;;;5.63;100.00
10466;BME280;5280;42.600;23.556;2023-03-04T04:15:32;93303.25;;;5.68;100.00
10466;BME280;5280;42.600;23.556;2023-03-04T04:18:01;93297.81;;;5.56;100.00
10466;BME280;5280;42.600;23.556;2023-03-04T04:20:28;93306.88;;;5.65;100.00
10466;BME280;5280;42.600;23.556;2023-03-04T04:22:55;93308.75;;;5.63;100.00
10466;BME280;5280;42.600;23.556;2023-03-04T04:25:22;93300.06;;;5.62;100.00
10466;BME280;5280;42.600;23.556;2023-03-04T04:27:58;93304.06;;;5.68;100.00
10466;BME280;5280;42.600;23.556;2023-03-04T04:30:24;93303.03;;;5.71;100.00
10466;BME280;5280;42.600;23.556;2023-03-04T04:32:51;93301.25;;;5.71;100.00
10466;BME280;5280;42.600;23.556;2023-03-04T04:35:18;93303.97;;;5.70;100.00
10466;BME280;5280;42.600;23.556;2023-03-04T04:37:45;93220.72;;;5.18;100.00
10466;BME280;5280;42.600;23.556;2023-03-04T04:40:12;93292.28;;;5.61;100.00
10466;BME280;5280;42.600;23.556;2023-03-04T04:42:39;93295.00;;;5.59;100.00
10466;BME280;5280;42.600;23.556;2023-03-04T04:45:08;93311.09;;;5.68;100.00
10466;BME280;5280;42.600;23.556;2023-03-04T04:47:35;93308.50;;;5.68;100.00
10466;BME280;5280;42.600;23.556;2023-03-04T04:50:06;93308.38;;;5.69;100.00
10466;BME280;5280;42.600;23.556;2023-03-04T04:52:33;93307.44;;;5.70;100.00
10466;BME280;5280;42.600;23.556;2023-03-04T04:55:00;93308.28;;;5.71;100.00
10466;BME280;5280;42.600;23.556;2023-03-04T04:57:27;93297.31;;;5.64;100.00
10466;BME280;5280;42.600;23.556;2023-03-04T04:59:53;93286.09;;;5.62;100.00
10466;BME280;5280;42.600;23.556;2023-03-04T05:02:22;93304.16;;;5.67;100.00
10466;BME280;5280;42.600;23.556;2023-03-04T05:04:48;93306.50;;;5.71;100.00
10466;BME280;5280;42.600;23.556;2023-03-04T05:07:15;93312.69;;;5.70;100.00
10466;BME280;5280;42.600;23.556;2023-03-04T05:09:42;93309.31;;;5.68;100.00
10466;BME280;5280;42.600;23.556;2023-03-04T05:12:10;93288.91;;;5.45;100.00
10466;BME280;5280;42.600;23.556;2023-03-04T05:14:37;93317.06;;;5.70;100.00
10466;BME280;5280;42.600;23.556;2023-03-04T05:17:03;93317.38;;;5.65;100.00
10466;BME280;5280;42.600;23.556;2023-03-04T05:19:31;93319.69;;;5.70;100.00
10466;BME280;5280;42.600;23.556;2023-03-04T05:21:58;93322.41;;;5.68;100.00
10466;BME280;5280;42.600;23.556;2023-03-04T05:24:25;93322.41;;;5.68;100.00
10466;BME280;5280;42.600;23.556;2023-03-04T05:26:52;93329.53;;;5.66;100.00
10466;BME280;5280;42.600;23.556;2023-03-04T05:29:19;93332.16;;;5.66;100.00
10466;BME280;5280;42.600;23.556;2023-03-04T05:31:46;93311.94;;;5.54;100.00
10466;BME280;5280;42.600;23.556;2023-03-04T05:34:13;93338.91;;;5.70;100.00
10466;BME280;5280;42.600;23.556;2023-03-04T05:36:41;93345.84;;;5.71;100.00
10466;BME280;5280;42.600;23.556;2023-03-04T05:39:08;93338.97;;;5.69;100.00
10466;BME280;5280;42.600;23.556;2023-03-04T05:41:35;93342.44;;;5.69;100.00
10466;BME280;5280;42.600;23.556;2023-03-04T05:44:02;93335.34;;;5.71;100.00
10466;BME280;5280;42.600;23.556;2023-03-04T05:46:28;93338.81;;;5.72;100.00
10466;BME280;5280;42.600;23.556;2023-03-04T05:48:55;93333.09;;;5.65;100.00
10466;BME280;5280;42.600;23.556;2023-03-04T05:51:22;93341.59;;;5.69;100.00
10466;BME280;5280;42.600;23.556;2023-03-04T05:53:50;93327.84;;;5.51;100.00
10466;BME280;5280;42.600;23.556;2023-03-04T05:56:19;93326.53;;;5.44;100.00
10466;BME280;5280;42.600;23.556;2023-03-04T05:58:46;93347.91;;;5.52;100.00
10466;BME280;5280;42.600;23.556;2023-03-04T06:01:13;93345.44;;;5.49;100.00
10466;BME280;5280;42.600;23.556;2023-03-04T06:03:40;93331.75;;;5.30;100.00
10466;BME280;5280;42.600;23.556;2023-03-04T06:06:08;93351.06;;;5.43;100.00
10466;BME280;5280;42.600;23.556;2023-03-04T06:08:35;93343.66;;;5.35;100.00
10466;BME280;5280;42.600;23.556;2023-03-04T06:11:03;93352.63;;;5.31;100.00
10466;BME280;5280;42.600;23.556;2023-03-04T06:13:30;93352.38;;;5.36;100.00
10466;BME280;5280;42.600;23.556;2023-03-04T06:15:58;93339.06;;;5.25;100.00
10466;BME280;5280;42.600;23.556;2023-03-04T06:18:26;93357.53;;;5.37;100.00
10466;BME280;5280;42.600;23.556;2023-03-04T06:20:56;93357.59;;;5.36;100.00
10466;BME280;5280;42.600;23.556;2023-03-04T06:23:24;93351.06;;;5.43;100.00
10466;BME280;5280;42.600;23.556;2023-03-04T06:25:51;93351.06;;;5.43;100.00
10466;BME280;5280;42.600;23.556;2023-03-04T06:28:21;93359.88;;;5.42;100.00
10466;BME280;5280;42.600;23.556;2023-03-04T06:30:50;93369.31;;;5.44;100.00
10466;BME280;5280;42.600;23.556;2023-03-04T06:33:18;93352.56;;;5.47;100.00
10466;BME280;5280;42.600;23.556;2023-03-04T06:35:45;93351.16;;;5.55;100.00
10466;BME280;5280;42.600;23.556;2023-03-04T06:38:12;93333.53;;;5.43;100.00
10466;BME280;5280;42.600;23.556;2023-03-04T06:40:39;93366.81;;;5.71;100.00
10466;BME280;5280;42.600;23.556;2023-03-04T06:43:06;93368.88;;;5.80;100.00
10466;BME280;5280;42.600;23.556;2023-03-04T06:45:37;93366.81;;;5.85;100.00
10466;BME280;5280;42.600;23.556;2023-03-04T06:48:05;93358.59;;;5.91;100.00
10466;BME280;5280;42.600;23.556;2023-03-04T06:50:32;93353.69;;;5.85;100.00
10466;BME280;5280;42.600;23.556;2023-03-04T06:52:58;93367.41;;;5.90;100.00
10466;BME280;5280;42.600;23.556;2023-03-04T06:55:25;93382.47;;;5.87;100.00
10466;BME280;5280;42.600;23.556;2023-03-04T06:57:52;93375.47;;;5.87;100.00
10466;BME280;5280;42.600;23.556;2023-03-04T07:00:20;93350.44;;;5.68;100.00
10466;BME280;5280;42.600;23.556;2023-03-04T07:02:49;93373.66;;;5.88;100.00
10466;BME280;5280;42.600;23.556;2023-03-04T07:05:16;93386.97;;;5.99;100.00
10466;BME280;5280;42.600;23.556;2023-03-04T07:07:43;93389.22;;;6.05;100.00
10466;BME280;5280;42.600;23.556;2023-03-04T07:10:11;93366.91;;;5.98;100.00
10466;BME280;5280;42.600;23.556;2023-03-04T07:12:37;93391.38;;;6.13;100.00
10466;BME280;5280;42.600;23.556;2023-03-04T07:15:05;93389.41;;;6.16;100.00
10466;BME280;5280;42.600;23.556;2023-03-04T07:17:33;93358.03;;;6.00;100.00
10466;BME280;5280;42.600;23.556;2023-03-04T07:20:01;93386.41;;;6.22;100.00
10466;BME280;5280;42.600;23.556;2023-03-04T07:22:30;93379.53;;;6.20;100.00
10466;BME280;5280;42.600;23.556;2023-03-04T07:24:57;93386.94;;;6.27;100.00
10466;BME280;5280;42.600;23.556;2023-03-04T07:27:24;93387.03;;;6.26;100.00
10466;BME280;5280;42.600;23.556;2023-03-04T07:29:51;93392.56;;;6.21;100.00
10466;BME280;5280;42.600;23.556;2023-03-04T07:32:18;93345.66;;;6.02;100.00
10466;BME280;5280;42.600;23.556;2023-03-04T07:34:44;93376.91;;;6.20;100.00
10466;BME280;5280;42.600;23.556;2023-03-04T07:37:12;93339.47;;;5.89;100.00
10466;BME280;5280;42.600;23.556;2023-03-04T07:39:39;93389.38;;;6.30;100.00
10466;BME280;5280;42.600;23.556;2023-03-04T07:42:06;93390.31;;;6.29;100.00
10466;BME280;5280;42.600;23.556;2023-03-04T07:44:33;93366.22;;;6.23;100.00
10466;BME280;5280;42.600;23.556;2023-03-04T07:47:00;93388.53;;;6.16;100.00
10466;BME280;5280;42.600;23.556;2023-03-04T07:49:27;93385.94;;;6.16;100.00
10466;BME280;5280;42.600;23.556;2023-03-04T07:51:54;93364.41;;;5.96;100.00
10466;BME280;5280;42.600;23.556;2023-03-04T07:54:22;93375.25;;;6.04;100.00
10466;BME280;5280;42.600;23.556;2023-03-04T07:56:49;93364.66;;;6.06;100.00
10466;BME280;5280;42.600;23.556;2023-03-04T07:59:18;93343.41;;;5.82;100.00
10466;BME280;5280;42.600;23.556;2023-03-04T08:01:44;93379.19;;;6.12;100.00
10466;BME280;5280;42.600;23.556;2023-03-04T08:04:17;93372.06;;;5.99;100.00
10466;BME280;5280;42.600;23.556;2023-03-04T08:06:44;93373.97;;;5.97;100.00
10466;BME280;5280;42.600;23.556;2023-03-04T08:09:13;93390.03;;;6.20;100.00
10466;BME280;5280;42.600;23.556;2023-03-04T08:11:42;93330.28;;;5.82;100.00
10466;BME280;5280;42.600;23.556;2023-03-04T08:14:12;93387.75;;;6.28;100.00
10466;BME280;5280;42.600;23.556;2023-03-04T08:16:40;93355.66;;;6.10;100.00
10466;BME280;5280;42.600;23.556;2023-03-04T08:19:07;93371.09;;;6.29;100.00
10466;BME280;5280;42.600;23.556;2023-03-04T08:21:34;93384.03;;;6.32;100.00
10466;BME280;5280;42.600;23.556;2023-03-04T08:24:05;93377.66;;;6.36;100.00
10466;BME280;5280;42.600;23.556;2023-03-04T08:26:35;93375.56;;;6.41;100.00
10466;BME280;5280;42.600;23.556;2023-03-04T08:29:07;93369.94;;;6.33;100.00
10466;BME280;5280;42.600;23.556;2023-03-04T08:31:35;93373.34;;;6.35;100.00
10466;BME280;5280;42.600;23.556;2023-03-04T08:34:04;93373.88;;;6.40;100.00
10466;BME280;5280;42.600;23.556;2023-03-04T08:36:32;93358.50;;;6.34;100.00
10466;BME280;5280;42.600;23.556;2023-03-04T08:39:00;93376.13;;;6.46;100.00
10466;BME280;5280;42.600;23.556;2023-03-04T08:41:27;93385.72;;;6.19;100.00
10466;BME280;5280;42.600;23.556;2023-03-04T08:43:54;93351.53;;;6.20;100.00
10466;BME280;5280;42.600;23.556;2023-03-04T08:46:22;93369.00;;;6.34;100.00
10466;BME280;5280;42.600;23.556;2023-03-04T08:48:49;93321.84;;;6.05;100.00
10466;BME280;5280;42.600;23.556;2023-03-04T08:51:17;93366.59;;;6.31;100.00
10466;BME280;5280;42.600;23.556;2023-03-04T08:53:44;93362.88;;;6.07;100.00
10466;BME280;5280;42.600;23.556;2023-03-04T08:56:11;93374.09;;;6.23;100.00
10466;BME280;5280;42.600;23.556;2023-03-04T08:58:39;93377.28;;;6.28;100.00
10466;BME280;5280;42.600;23.556;2023-03-04T09:01:07;93370.72;;;6.35;100.00
10466;BME280;5280;42.600;23.556;2023-03-04T09:03:35;93339.44;;;6.18;100.00
10466;BME280;5280;42.600;23.556;2023-03-04T09:06:04;93334.72;;;6.23;100.00
10466;BME280;5280;42.600;23.556;2023-03-04T09:08:31;93368.97;;;6.48;100.00
10466;BME280;5280;42.600;23.556;2023-03-04T09:10:58;93362.06;;;6.47;100.00
10466;BME280;5280;42.600;23.556;2023-03-04T09:13:28;93350.16;;;6.41;100.00
10466;BME280;5280;42.600;23.556;2023-03-04T09:15:56;93354.19;;;6.47;100.00
10466;BME280;5280;42.600;23.556;2023-03-04T09:18:24;93362.19;;;6.58;100.00
10466;BME280;5280;42.600;23.556;2023-03-04T09:20:52;93291.94;;;6.22;100.00
10466;BME280;5280;42.600;23.556;2023-03-04T09:23:20;93362.75;;;6.63;100.00
10466;BME280;5280;42.600;23.556;2023-03-04T09:25:47;93356.00;;;6.59;100.00
10466;BME280;5280;42.600;23.556;2023-03-04T09:28:15;93347.44;;;6.43;100.00
10466;BME280;5280;42.600;23.556;2023-03-04T09:30:42;93327.16;;;6.32;100.00
10466;BME280;5280;42.600;23.556;2023-03-04T09:33:09;93340.69;;;6.39;100.00
10466;BME280;5280;42.600;23.556;2023-03-04T09:35:36;93344.25;;;6.52;100.00
10466;BME280;5280;42.600;23.556;2023-03-04T09:38:04;93317.91;;;6.39;100.00
10466;BME280;5280;42.600;23.556;2023-03-04T09:40:36;93298.16;;;6.34;100.00
10466;BME280;5280;42.600;23.556;2023-03-04T09:43:06;93352.25;;;6.63;100.00
10466;BME280;5280;42.600;23.556;2023-03-04T09:45:40;93335.75;;;6.61;100.00
10466;BME280;5280;42.600;23.556;2023-03-04T09:48:09;93340.94;;;6.75;100.00
10466;BME280;5280;42.600;23.556;2023-03-04T09:50:47;93330.69;;;6.58;100.00
10466;BME280;5280;42.600;23.556;2023-03-04T09:53:23;93341.81;;;6.76;100.00
10466;BME280;5280;42.600;23.556;2023-03-04T09:55:52;93339.25;;;6.74;100.00
10466;BME280;5280;42.600;23.556;2023-03-04T09:58:30;93335.19;;;6.83;100.00
10466;BME280;5280;42.600;23.556;2023-03-04T10:01:06;93328.28;;;6.95;100.00
10466;BME280;5280;42.600;23.556;2023-03-04T10:03:41;93296.81;;;6.68;100.00
10466;BME280;5280;42.600;23.556;2023-03-04T10:06:11;93313.16;;;6.98;100.00
10466;BME280;5280;42.600;23.556;2023-03-04T10:08:49;93332.53;;;7.10;100.00
10466;BME280;5280;42.600;23.556;2023-03-04T10:11:24;93317.47;;;6.99;100.00
10466;BME280;5280;42.600;23.556;2023-03-04T10:14:02;93309.69;;;6.98;100.00
10466;BME280;5280;42.600;23.556;2023-03-04T10:16:34;93316.66;;;7.11;100.00
10466;BME280;5280;42.600;23.556;2023-03-04T10:19:24;93321.72;;;7.14;100.00
10466;BME280;5280;42.600;23.556;2023-03-04T10:21:54;93317.06;;;7.18;100.00
10466;BME280;5280;42.600;23.556;2023-03-04T10:24:25;93322.56;;;7.27;100.00
10466;BME280;5280;42.600;23.556;2023-03-04T10:26:55;93322.16;;;7.33;100.00
10466;BME280;5280;42.600;23.556;2023-03-04T10:29:28;93319.19;;;7.38;100.00
10466;BME280;5280;42.600;23.556;2023-03-04T10:31:56;93226.06;;;7.04;100.00
10466;BME280;5280;42.600;23.556;2023-03-04T10:34:23;93295.56;;;7.51;98.79
10466;BME280;5280;42.600;23.556;2023-03-04T10:36:55;93296.59;;;7.48;96.67
10466;BME280;5280;42.600;23.556;2023-03-04T10:39:27;93294.31;;;7.56;97.86
10466;BME280;5280;42.600;23.556;2023-03-04T10:41:57;93282.09;;;7.55;98.44
10466;BME280;5280;42.600;23.556;2023-03-04T10:44:25;93285.75;;;7.65;98.34
10466;BME280;5280;42.600;23.556;2023-03-04T10:46:54;93288.50;;;7.76;96.04
10466;BME280;5280;42.600;23.556;2023-03-04T10:49:22;93286.06;;;7.73;95.62
10466;BME280;5280;42.600;23.556;2023-03-04T10:51:52;93270.28;;;7.73;97.45
10466;BME280;5280;42.600;23.556;2023-03-04T10:54:24;93286.91;;;7.87;96.18
10466;BME280;5280;42.600;23.556;2023-03-04T10:56:57;93265.72;;;7.88;95.27
10466;BME280;5280;42.600;23.556;2023-03-04T10:59:34;93265.22;;;7.83;93.97
10466;BME280;5280;42.600;23.556;2023-03-04T11:02:22;93270.22;;;7.99;94.88
10466;BME280;5280;42.600;23.556;2023-03-04T11:04:55;93262.84;;;8.04;94.75
10466;BME280;5280;42.600;23.556;2023-03-04T11:07:23;93258.59;;;8.14;94.33
10466;BME280;5280;42.600;23.556;2023-03-04T11:09:52;93255.75;;;8.17;94.70
10466;BME280;5280;42.600;23.556;2023-03-04T11:12:21;93238.06;;;8.19;93.20
10466;BME280;5280;42.600;23.556;2023-03-04T11:14:57;93243.19;;;8.33;94.71
10466;BME280;5280;42.600;23.556;2023-03-04T11:17:26;93218.25;;;8.26;94.39
10466;BME280;5280;42.600;23.556;2023-03-04T11:19:56;93240.97;;;8.40;93.10
10466;BME280;5280;42.600;23.556;2023-03-04T11:22:27;93216.03;;;8.33;91.90
10466;BME280;5280;42.600;23.556;2023-03-04T11:24:59;93207.94;;;8.23;90.74
10466;BME280;5280;42.600;23.556;2023-03-04T11:27:35;93236.25;;;8.32;90.53
10466;BME280;5280;42.600;23.556;2023-03-04T11:30:18;93202.00;;;8.32;91.01
10466;BME280;5280;42.600;23.556;2023-03-04T11:32:48;93202.81;;;8.45;91.34
10466;BME280;5280;42.600;23.556;2023-03-04T11:35:22;93202.31;;;8.40;91.99
10466;BME280;5280;42.600;23.556;2023-03-04T11:37:56;93201.56;;;8.38;92.65
10466;BME280;5280;42.600;23.556;2023-03-04T11:40:34;93158.84;;;8.22;93.20
10466;BME280;5280;42.600;23.556;2023-03-04T11:43:05;93204.34;;;8.37;93.19
10466;BME280;5280;42.600;23.556;2023-03-04T11:45:57;93201.28;;;8.54;90.25
10466;BME280;5280;42.600;23.556;2023-03-04T11:48:35;93197.53;;;8.45;92.09
10466;BME280;5280;42.600;23.556;2023-03-04T11:51:11;93204.03;;;8.52;92.99
10466;BME280;5280;42.600;23.556;2023-03-04T11:53:53;93195.81;;;8.33;91.54
10466;BME280;5280;42.600;23.556;2023-03-04T11:56:47;93191.03;;;8.38;91.92
10466;BME280;5280;42.600;23.556;2023-03-04T11:59:28;93170.72;;;8.28;92.04
10466;BME280;5280;42.600;23.556;2023-03-04T12:02:10;93181.94;;;8.42;91.09
10466;BME280;5280;42.600;23.556;2023-03-04T12:05:16;93183.28;;;8.24;92.06
10466;BME280;5280;42.600;23.556;2023-03-04T12:07:55;93167.59;;;8.22;92.49
10466;BME280;5280;42.600;23.556;2023-03-04T12:10:27;93182.09;;;8.41;93.17
10466;BME280;5280;42.600;23.556;2023-03-04T12:13:11;93177.44;;;8.44;92.10
10466;BME280;5280;42.600;23.556;2023-03-04T12:15:48;93173.88;;;8.56;89.95
10466;BME280;5280;42.600;23.556;2023-03-04T12:18:28;93143.19;;;8.44;91.12
10466;BME280;5280;42.600;23.556;2023-03-04T12:21:12;93154.81;;;8.53;89.99
10466;BME280;5280;42.600;23.556;2023-03-04T12:24:00;93160.88;;;8.66;89.65
10466;BME280;5280;42.600;23.556;2023-03-04T12:26:35;93167.72;;;8.80;88.81
10466;BME280;5280;42.600;23.556;2023-03-04T12:29:11;93166.97;;;8.78;89.14
10466;BME280;5280;42.600;23.556;2023-03-04T12:31:41;93165.28;;;8.77;87.68
10466;BME280;5280;42.600;23.556;2023-03-04T12:34:27;93152.25;;;8.75;89.36
10466;BME280;5280;42.600;23.556;2023-03-04T12:37:07;93149.75;;;8.85;89.38
10466;BME280;5280;42.600;23.556;2023-03-04T12:39:40;93146.88;;;8.88;89.39
10466;BME280;5280;42.600;23.556;2023-03-04T12:42:19;93149.06;;;8.94;87.55
10466;BME280;5280;42.600;23.556;2023-03-04T12:45:00;93154.06;;;8.97;87.38
10466;BME280;5280;42.600;23.556;2023-03-04T12:47:36;93147.63;;;9.01;86.67
10466;BME280;5280;42.600;23.556;2023-03-04T12:50:23;93149.66;;;9.08;86.05
10466;BME280;5280;42.600;23.556;2023-03-04T12:52:57;93134.69;;;9.09;87.25
10466;BME280;5280;42.600;23.556;2023-03-04T12:55:34;93121.38;;;8.88;85.55
10466;BME280;5280;42.600;23.556;2023-03-04T12:58:03;93124.28;;;8.96;86.14
10466;BME280;5280;42.600;23.556;2023-03-04T13:00:40;93123.19;;;9.10;86.96
10466;BME280;5280;42.600;23.556;2023-03-04T13:03:16;93126.66;;;9.22;87.46
10466;BME280;5280;42.600;23.556;2023-03-04T13:05:57;93087.00;;;8.79;87.82
10466;BME280;5280;42.600;23.556;2023-03-04T13:08:35;93122.94;;;9.13;88.66
10466;BME280;5280;42.600;23.556;2023-03-04T13:11:32;93117.94;;;9.21;89.11
10466;BME280;5280;42.600;23.556;2023-03-04T13:14:05;93117.69;;;9.24;87.18
10466;BME280;5280;42.600;23.556;2023-03-04T13:16:38;93114.44;;;8.98;86.65